This is the latest recevied weather packets stored in our database for station/object IU0SZS-10. If no packets are shown the sender has not sent any weather packets the latest 10 day(s).
| Time | Temp. | Humidity | Pressure | Rain* | Wind** | Luminosity | Snow |
|---|---|---|---|---|---|---|---|
| 1777402679 | 16.11° C | 47% | 916.4 hPa | - | - | - | - |
| 1777401779 | 16.67° C | 45% | 916.2 hPa | - | - | - | - |
| 1777400879 | 16.67° C | 40% | 916.1 hPa | - | - | - | - |
| 1777399979 | 17.22° C | 38% | 915.9 hPa | - | - | - | - |
| 1777399078 | 18.33° C | 37% | 915.8 hPa | - | - | - | - |
| 1777398213 | 19.44° C | 35% | 915.8 hPa | - | - | - | - |
| 1777398178 | 19.44° C | 35% | 915.8 hPa | - | - | - | - |
| 1777397276 | 20.56° C | 34% | 915.8 hPa | - | - | - | - |
| 1777396376 | 21.67° C | 32% | 915.7 hPa | - | - | - | - |
| 1777395476 | 22.22° C | 32% | 915.7 hPa | - | - | - | - |
| 1777394575 | 22.22° C | 34% | 915.6 hPa | - | - | - | - |
| 1777393715 | 21.67° C | 34% | 915.8 hPa | - | - | - | - |
| 1777393675 | 21.67° C | 34% | 915.8 hPa | - | - | - | - |
| 1777392775 | 21.67° C | 34% | 915.7 hPa | - | - | - | - |
| 1777391875 | 21.67° C | 33% | 915.7 hPa | - | - | - | - |
| 1777390975 | 21.11° C | 34% | 915.7 hPa | - | - | - | - |
| 1777390075 | 19.44° C | 37% | 915.7 hPa | - | - | - | - |
| 1777389170 | 20.56° C | 36% | 915.8 hPa | - | - | - | - |
| 1777388302 | 20° C | 37% | 915.8 hPa | - | - | - | - |
| 1777388270 | 20° C | 37% | 915.8 hPa | - | - | - | - |
| 1777387370 | 21.11° C | 34% | 915.8 hPa | - | - | - | - |
| 1777386470 | 19.44° C | 40% | 915.9 hPa | - | - | - | - |
| 1777385570 | 19.44° C | 38% | 916.1 hPa | - | - | - | - |
| 1777384670 | 20.56° C | 37% | 916.1 hPa | - | - | - | - |
| 1777383769 | 20.56° C | 39% | 916.2 hPa | - | - | - | - |
* Rain since midnight (hover to see other rain measurements)
** Current wind speed in m/s (hover to see current wind gust speed)